EGMCLFOB

Guest
Details From EGMC - Southend
To LFOB - Beauvais-Tille
Flight Number -
Tags generated
Created
Modified
Stats Distance 138 nm / 256 km
Max Altitude 6,700 ft / 2,042 m
Waypoints 3
Social Downloads 1
Likes 0
Share VATSIM

Download

Looking for another format? Having issues loading an existing format? Contact us
Advertisement - Login to hide

Notes

Basic altitude profile: - Ascent Rate: 2500ft/min - Ascent Speed: 250kts - Cruise Altitude: 35000ft - Cruise Speed: 420kts - Descent Rate: 1500ft/min - Descent Speed: 250kts Options: - Use NATs: yes - Use PACOTS: yes - Use low airways: yes - Use high airways: yes

Route

EGMC ABSUD LFOB

ID Type Via Altitude Latitude Longitude Leg Dist Tot Dist Heading (true) Name
O EGMC APT - 0 ft / 0 m 51.57144˚ 0.69558˚ - 0 nm - Southend
ABSUD FIX - 6,700 ft / 2,042 m 49.93917˚ 1.79111˚ 106 nm 106 nm 157° / 157° -
O LFOB APT - 0 ft / 0 m 49.45600˚ 2.11891˚ 31 nm 138 nm 156° / 156° Beauvais-Tille

Altitude Profile

Advertisement - Login to hide

EGMC

Details ICAO EGMC (SEN)
Name Southend
Region United Kingdom
Timezone Europe/London (UTC+0.0)
Stats Elevation 49 ft / 15 m (AMSL)
Location 51.571443° 0.695583°
Runways 1
Magnetic Variation 0.169° W

METAR

EGMC 181220Z 32007KT CAVOK 06/02 Q1029

Decode

TAF

Not found

Departure Runways

ID Width Length Bearing (true) Bearing (mag) Surface Threshold Offset Overrun Length
06 121 ft / 37 m 5,230 ft / 1,594 m 54.10° 54.27° Asphalt 558 ft / 170 m 0 ft / 0 m
24 121 ft / 37 m 5,230 ft / 1,594 m 234.11° 234.28° Asphalt 466 ft / 142 m 0 ft / 0 m

LFOB

Details ICAO LFOB (BVA)
Name Beauvais-Tille
Region France
Timezone Europe/Paris (UTC+1.0)
Stats Elevation 358 ft / 109 m (AMSL)
Location 49.456000° 2.118914°
Runways 2
Magnetic Variation 0.476° E

METAR

LFOB 181230Z AUTO 34010KT 9999 FEW017 SCT028 BKN040 07/04 Q1027 NOSIG

Decode

TAF

TAF LFOB 181100Z 1812/1912 36012KT 9999 SCT020 BECMG 1815/1817 VRB02KT BECMG 1820/1823 4000 BR BECMG 1901/1904 0200 FG VV/// PROB40 1910/1912 1500 BR OVC002

Decode

Destination Runways

ID Width Length Bearing (true) Bearing (mag) Surface Threshold Offset Overrun Length
04 82 ft / 25 m 2,321 ft / 707 m 41.41° 40.93° Asphalt 0 ft / 0 m 0 ft / 0 m
12 148 ft / 45 m 7,954 ft / 2,424 m 123.73° 123.25° Asphalt 148 ft / 45 m 0 ft / 0 m
22 82 ft / 25 m 2,321 ft / 707 m 221.41° 220.93° Asphalt 0 ft / 0 m 0 ft / 0 m
30 148 ft / 45 m 7,954 ft / 2,424 m 303.75° 303.27° Asphalt 0 ft / 0 m 0 ft / 0 m

Approach Navaids

Runway Type Ident Frequency Range Bearing (true) Bearing (mag) Slope Elevation
12 Localiser BVT 111.15 MHz 18 nm / 33 km 123.73° 123.26° - 289 ft / 88 m (AMSL)
12 Glidescope BVT 111.15 MHz 10 nm / 19 km 125.00° 124.52° 3.00° 344 ft / 105 m (AMSL)
12 DME BVT 111.15 MHz 18 nm / 33 km - - - 344 ft / 105 m (AMSL)
30 Localiser BI 109.95 MHz 18 nm / 33 km 303.83° 303.36° - 327 ft / 100 m (AMSL)
30 Glidescope BI 109.95 MHz 10 nm / 19 km 305.00° 304.52° 3.00° 305 ft / 93 m (AMSL)
30 DME BI 109.95 MHz 18 nm / 33 km - - - 303 ft / 92 m (AMSL)